Etusivu
METAR-TAF:

METAR-TAF

Lentoasemat :

Madera Municipal Airport

Madera, Kalifornia, Yhdysvallat

Leveyspiiri: 36-59-12N, Pituuspiiri: 120-06-39W, korkeus merenpinnasta: 77 m

Tämänhetkinen sää

Tämä raportti tehtiin 21 minuuttia sitten, kello 20.53 UTC
Tuuli 4 kn eri suunnista
Lämpötila 28°C
Kosteus 45%
Ilmanpaine 1008 hPa
Näkyvyys: 16.1 km
selkeää

METAR: KMAE 252053Z AUTO VRB04KT 10SM CLR 28/15 A2977 RMK AO2 SLP077 T02830150 58015

Aika: 14:14 (21:14 UTC)


TAF: puuttuu

Säähavainnot ja -ennusteet yli 4000 lentoasemalta (METAR- ja TAF-raportit).

Käytössä olevat sääasemat on merkitty karttaan keltaisilla ja punaisilla pisteillä.

Aseta hiiri pisteen päälle nähdäksesi sääaseman nimen.

Klikkaa sitten nähdäksesi säähavainnot ja -ennusteet.

Kartan vaihtaminen: klikkaa mustalla rastilla varustettuja vihreitä pisteitä, niin voit zoomata sisään; viivalla varustettua vihreää pistettä, niin voit zoomata ulos tai vihreitä nuolia, niin pääset viereisille kartoille.


METAR-TAF: